Station Historical Data
Daily Summary for September 12, 2017 Units:  Metric    English   Both
« Previous Day
Next Day »
Daily Weekly Monthly Yearly Custom
  High: Low: Average:
Temperature: 26.7 °C 9.3 °C 18.1 °C
Dew Point: 15.8 °C 8.1 °C 11.7 °C
Humidity: 93% 33% 70%
Wind Speed: 8km/h 0km/h 1km/h
Wind Gust: 11.3km/h - -
Wind- - SW
Pressure: 1020.5 hPa 1011.7 hPa -
Precipitation: 0 mm    
Historical Graphs
 
 
Tabular Data for September 12, 2017
Time Temperature Dew Point Pressure Wind Wind Speed Wind Gust Humidity Rainfall Rate (Hourly)
00:04 13.7 °C 11.6 °C 1020.5 hPa Calm     87% 0 mm
00:09 13.7 °C 11.6 °C 1020.5 hPa Calm     87% 0 mm
00:14 13.6 °C 11.7 °C 1020.5 hPa Calm     88% 0 mm
00:19 13.6 °C 11.6 °C 1020.5 hPa Calm     88% 0 mm
00:24 13.3 °C 11.4 °C 1020.2 hPa Calm     88% 0 mm
00:29 13.2 °C 11.2 °C 1020.2 hPa Calm     88% 0 mm
00:34 13.1 °C 11.1 °C 1020.2 hPa Calm     88% 0 mm
00:39 13 °C 11.2 °C 1020.2 hPa Calm     89% 0 mm
00:44 12.8 °C 11.1 °C 1020.2 hPa Calm     89% 0 mm
00:49 12.9 °C 11.3 °C 1020.2 hPa Calm     90% 0 mm
00:54 12.9 °C 11.2 °C 1019.9 hPa Calm     89% 0 mm
00:59 12.9 °C 11.3 °C 1019.9 hPa Calm     90% 0 mm
01:04 12.9 °C 11.3 °C 1019.9 hPa Calm     90% 0 mm
01:09 12.8 °C 11 °C 1019.9 hPa Calm     89% 0 mm
01:14 12.7 °C 11.1 °C 1019.9 hPa Calm     90% 0 mm
01:19 12.5 °C 10.7 °C 1019.9 hPa Calm     89% 0 mm
01:24 12.6 °C 10.9 °C 1019.5 hPa Calm     90% 0 mm
01:29 12.4 °C 10.8 °C 1019.5 hPa Calm     90% 0 mm
01:34 12.4 °C 10.8 °C 1019.5 hPa Calm     90% 0 mm
01:39 12.4 °C 11 °C 1019.5 hPa Calm     91% 0 mm
01:44 12.4 °C 10.8 °C 1019.5 hPa Calm     90% 0 mm
01:49 12.3 °C 10.7 °C 1019.5 hPa Calm     90% 0 mm
01:54 12.3 °C 10.8 °C 1019.5 hPa Calm     91% 0 mm
01:59 12.2 °C 10.6 °C 1019.5 hPa Calm     90% 0 mm
02:04 12.1 °C 10.4 °C 1019.5 hPa Calm     90% 0 mm
02:09 12 °C 10.6 °C 1019.2 hPa Calm     91% 0 mm
02:14 12.1 °C 10.6 °C 1019.2 hPa Calm     91% 0 mm
02:19 11.9 °C 10.4 °C 1019.2 hPa Calm     91% 0 mm
02:24 11.8 °C 10.4 °C 1019.2 hPa Calm     91% 0 mm
02:29 11.9 °C 10.4 °C 1019.2 hPa Calm   1.6 km/h 91% 0 mm
02:34 11.9 °C 10.5 °C 1019.2 hPa Calm   1.6 km/h 91% 0 mm
02:39 11.9 °C 10.5 °C 1019.2 hPa Calm     91% 0 mm
02:44 11.9 °C 10.5 °C 1019.2 hPa Calm     91% 0 mm
02:49 11.8 °C 10.4 °C 1019.2 hPa Calm     91% 0 mm
02:54 11.8 °C 10.4 °C 1019.2 hPa Calm     91% 0 mm
02:59 11.8 °C 10.3 °C 1018.8 hPa Calm     91% 0 mm
03:04 11.8 °C 10.4 °C 1018.8 hPa Calm     91% 0 mm
03:09 11.8 °C 10.4 °C 1019.2 hPa Calm     91% 0 mm
03:14 11.8 °C 10.3 °C 1019.2 hPa Calm     91% 0 mm
03:19 11.7 °C 10.3 °C 1019.2 hPa Calm     91% 0 mm
03:24 11.8 °C 10.3 °C 1018.8 hPa Calm     91% 0 mm
03:29 11.7 °C 10.3 °C 1018.8 hPa Calm     91% 0 mm
03:34 11.6 °C 10.1 °C 1019.2 hPa Calm     91% 0 mm
03:39 11.4 °C 10 °C 1018.8 hPa Calm     91% 0 mm
03:44 11.4 °C 10 °C 1018.8 hPa Calm     91% 0 mm
03:49 11.4 °C 10 °C 1018.8 hPa Calm     91% 0 mm
03:54 11.4 °C 9.9 °C 1018.8 hPa Calm     91% 0 mm
03:59 11.3 °C 9.9 °C 1018.8 hPa Calm     91% 0 mm
04:04 11.3 °C 9.9 °C 1018.5 hPa Calm     91% 0 mm
04:09 11.2 °C 9.8 °C 1018.5 hPa Calm     91% 0 mm
04:14 11.1 °C 9.7 °C 1018.5 hPa Calm     91% 0 mm
04:19 11.1 °C 9.8 °C 1018.5 hPa Calm     92% 0 mm
04:24 11 °C 9.6 °C 1018.5 hPa Calm     91% 0 mm
04:29 10.8 °C 9.4 °C 1018.5 hPa Calm     91% 0 mm
04:34 10.9 °C 9.7 °C 1018.5 hPa Calm     92% 0 mm
04:39 10.9 °C 9.7 °C 1018.5 hPa Calm     92% 0 mm
04:44 11 °C 9.7 °C 1018.5 hPa Calm     92% 0 mm
04:49 10.9 °C 9.7 °C 1018.2 hPa Calm     92% 0 mm
04:54 10.9 °C 9.5 °C 1018.2 hPa Calm     91% 0 mm
04:59 10.8 °C 9.4 °C 1018.2 hPa Calm     91% 0 mm
05:04 10.8 °C 9.6 °C 1018.2 hPa Calm     92% 0 mm
05:09 10.7 °C 9.4 °C 1018.2 hPa Calm     92% 0 mm
05:14 10.6 °C 9.2 °C 1018.2 hPa Calm     91% 0 mm
05:19 10.6 °C 9.3 °C 1018.2 hPa Calm     92% 0 mm
05:24 10.6 °C 9.3 °C 1017.8 hPa Calm     92% 0 mm
05:29 10.6 °C 9.3 °C 1017.8 hPa Calm     92% 0 mm
05:34 10.6 °C 9.4 °C 1017.8 hPa Calm     92% 0 mm
05:39 10.7 °C 9.4 °C 1017.8 hPa Calm     92% 0 mm
05:44 10.4 °C 9.1 °C 1017.8 hPa Calm     91% 0 mm
05:49 10.4 °C 9.2 °C 1017.8 hPa Calm     92% 0 mm
05:54 10.4 °C 9.2 °C 1017.8 hPa Calm     92% 0 mm
05:59 10.3 °C 8.9 °C 1017.8 hPa Calm     91% 0 mm
06:04 10.1 °C 8.8 °C 1018.2 hPa Calm     92% 0 mm
06:09 9.8 °C 8.4 °C 1018.2 hPa Calm     91% 0 mm
06:14 9.8 °C 8.4 °C 1018.2 hPa Calm     91% 0 mm
06:19 9.7 °C 8.4 °C 1018.2 hPa Calm     92% 0 mm
06:24 9.7 °C 8.4 °C 1018.2 hPa Calm     92% 0 mm
06:29 9.6 °C 8.4 °C 1018.2 hPa Calm     92% 0 mm
06:34 9.6 °C 8.3 °C 1018.2 hPa Calm     92% 0 mm
06:39 9.5 °C 8.3 °C 1018.2 hPa Calm     92% 0 mm
06:44 9.4 °C 8.2 °C 1018.2 hPa Calm     92% 0 mm
06:49 9.4 °C 8.2 °C 1018.2 hPa Calm     92% 0 mm
06:54 9.3 °C 8.1 °C 1018.2 hPa Calm     92% 0 mm
06:59 9.3 °C 8.1 °C 1018.2 hPa Calm     92% 0 mm
07:04 9.4 °C 8.2 °C 1018.2 hPa Calm     92% 0 mm
07:09 9.6 °C 8.3 °C 1018.2 hPa Calm     92% 0 mm
07:14 9.7 °C 8.5 °C 1018.2 hPa Calm     92% 0 mm
07:19 9.8 °C 8.6 °C 1018.2 hPa Calm     92% 0 mm
07:24 10.1 °C 9 °C 1018.2 hPa Calm     93% 0 mm
07:29 10.4 °C 9.3 °C 1018.2 hPa Calm     93% 0 mm
07:34 10.6 °C 9.5 °C 1018.2 hPa Calm     93% 0 mm
07:39 10.8 °C 9.6 °C 1018.2 hPa Calm     92% 0 mm
07:44 11.1 °C 9.8 °C 1018.2 hPa Calm     92% 0 mm
07:49 11.3 °C 10 °C 1018.2 hPa Calm     92% 0 mm
07:54 11.5 °C 10.2 °C 1018.2 hPa Calm     92% 0 mm
07:59 11.7 °C 10.3 °C 1018.2 hPa Calm     91% 0 mm
08:04 12 °C 10.4 °C 1018.2 hPa Calm     90% 0 mm
08:09 12.2 °C 10.4 °C 1018.2 hPa Calm     89% 0 mm
08:14 12.4 °C 10.7 °C 1018.2 hPa Calm     89% 0 mm
08:19 12.8 °C 10.7 °C 1017.8 hPa Calm     87% 0 mm
08:24 13.1 °C 10.8 °C 1018.2 hPa Calm     86% 0 mm
08:29 13.5 °C 11 °C 1018.2 hPa Calm     85% 0 mm
08:34 13.9 °C 11.1 °C 1017.8 hPa Calm     83% 0 mm
08:39 14.1 °C 10.9 °C 1017.8 hPa Calm     81% 0 mm
08:44 14.4 °C 11.2 °C 1017.8 hPa Calm     81% 0 mm
08:49 15.1 °C 11.4 °C 1017.8 hPa Calm     79% 0 mm
08:54 15.2 °C 11.6 °C 1017.8 hPa Calm     79% 0 mm
08:59 15.7 °C 11.5 °C 1017.8 hPa Calm     76% 0 mm
09:04 15.9 °C 11.7 °C 1017.8 hPa Calm     76% 0 mm
09:09 16 °C 11.6 °C 1017.8 hPa Calm     75% 0 mm
09:14 16.3 °C 12.1 °C 1017.8 hPa Calm     76% 0 mm
09:19 16.7 °C 12 °C 1017.8 hPa Calm     74% 0 mm
09:24 16.6 °C 11.7 °C 1017.8 hPa Calm     73% 0 mm
09:29 17.3 °C 12.6 °C 1017.8 hPa Calm     74% 0 mm
09:34 17.7 °C 12.6 °C 1017.8 hPa Calm     72% 0 mm
09:39 17.8 °C 12 °C 1017.8 hPa Calm     69% 0 mm
09:44 18 °C 12.4 °C 1017.8 hPa Calm     70% 0 mm
09:49 18.5 °C 12.7 °C 1017.8 hPa Calm     69% 0 mm
09:54 18.8 °C 12.8 °C 1017.8 hPa Calm     68% 0 mm
09:59 19.2 °C 13.1 °C 1017.8 hPa Calm     68% 0 mm
10:04 19.5 °C 13.4 °C 1017.8 hPa Calm     68% 0 mm
10:09 19.6 °C 12.1 °C 1017.8 hPa Calm     62% 0 mm
10:14 19.7 °C 12.9 °C 1017.8 hPa Calm     65% 0 mm
10:19 19.9 °C 12.4 °C 1017.8 hPa Calm     62% 0 mm
10:24 20.1 °C 12.6 °C 1017.8 hPa Calm     62% 0 mm
10:29 20.3 °C 12.6 °C 1017.8 hPa Calm     61% 0 mm
10:34 20.6 °C 12.8 °C 1017.5 hPa Calm     61% 0 mm
10:39 20.7 °C 12.9 °C 1017.5 hPa Calm     61% 0 mm
10:44 21.1 °C 13.2 °C 1017.5 hPa Calm     61% 0 mm
10:49 21.2 °C 12.8 °C 1017.5 hPa Calm     59% 0 mm
10:54 21.4 °C 12.8 °C 1017.5 hPa Calm     58% 0 mm
10:59 21.2 °C 13.1 °C 1017.5 hPa WSW 1.6 km/h 8 km/h 60% 0 mm
11:04 21.6 °C 13.7 °C 1017.2 hPa Calm   6.4 km/h 61% 0 mm
11:09 21.9 °C 13.5 °C 1017.2 hPa WNW 4.8 km/h 6.4 km/h 59% 0 mm
11:14 21.9 °C 12.7 °C 1017.2 hPa Calm   6.4 km/h 56% 0 mm
11:19 21.9 °C 13 °C 1017.2 hPa NW 1.6 km/h 6.4 km/h 57% 0 mm
11:24 22.4 °C 14.3 °C 1016.8 hPa NW 1.6 km/h 6.4 km/h 60% 0 mm
11:29 22.7 °C 13.7 °C 1016.8 hPa WNW 3.2 km/h 8 km/h 57% 0 mm
11:34 22.6 °C 14.4 °C 1017.2 hPa NW 1.6 km/h 6.4 km/h 60% 0 mm
11:39 22.4 °C 14 °C 1016.8 hPa NW 1.6 km/h 3.2 km/h 59% 0 mm
11:44 22.6 °C 13.3 °C 1016.8 hPa North 1.6 km/h 4.8 km/h 56% 0 mm
11:49 22.6 °C 13.9 °C 1016.8 hPa NNW 1.6 km/h 8 km/h 58% 0 mm
11:54 22.8 °C 14.4 °C 1016.8 hPa NW 3.2 km/h 8 km/h 59% 0 mm
11:59 22.8 °C 13.6 °C 1016.8 hPa NW 1.6 km/h 8 km/h 56% 0 mm
12:04 22.9 °C 13.1 °C 1016.8 hPa WNW 1.6 km/h 4.8 km/h 54% 0 mm
12:09 23.1 °C 14.1 °C 1016.8 hPa NW 3.2 km/h 6.4 km/h 57% 0 mm
12:14 23.3 °C 14.1 °C 1016.8 hPa NW 3.2 km/h 4.8 km/h 56% 0 mm
12:19 23.3 °C 13.7 °C 1016.5 hPa NW 1.6 km/h 4.8 km/h 55% 0 mm
12:24 23.2 °C 13.7 °C 1016.5 hPa NNW 3.2 km/h 6.4 km/h 55% 0 mm
12:29 23.5 °C 14.2 °C 1016.5 hPa WNW 4.8 km/h 4.8 km/h 56% 0 mm
12:34 23.7 °C 14.4 °C 1016.1 hPa Calm   6.4 km/h 56% 0 mm
12:39 23.5 °C 13.1 °C 1016.1 hPa WNW 1.6 km/h 4.8 km/h 52% 0 mm
12:44 23.7 °C 12.9 °C 1016.1 hPa Calm   6.4 km/h 51% 0 mm
12:49 24.1 °C 13.3 °C 1016.1 hPa NW 1.6 km/h 6.4 km/h 51% 0 mm
12:54 24 °C 13.8 °C 1016.1 hPa NW 1.6 km/h 6.4 km/h 53% 0 mm
12:59 23.9 °C 13.2 °C 1016.1 hPa NW 3.2 km/h 6.4 km/h 51% 0 mm
13:04 24.1 °C 13.6 °C 1016.1 hPa WSW 1.6 km/h 6.4 km/h 52% 0 mm
13:09 24.3 °C 13.5 °C 1015.8 hPa Calm   3.2 km/h 51% 0 mm
13:14 24.6 °C 13.8 °C 1015.8 hPa West 3.2 km/h 6.4 km/h 51% 0 mm
13:19 24.6 °C 12.9 °C 1015.8 hPa WSW 4.8 km/h 8 km/h 48% 0 mm
13:24 24.4 °C 13.7 °C 1015.8 hPa West 4.8 km/h 11.3 km/h 51% 0 mm
13:29 24.4 °C 13.3 °C 1015.8 hPa West 4.8 km/h 11.3 km/h 50% 0 mm
13:34 24.4 °C 13.3 °C 1015.8 hPa NW 1.6 km/h 6.4 km/h 50% 0 mm
13:39 24.8 °C 13.1 °C 1015.8 hPa NW 1.6 km/h 6.4 km/h 48% 0 mm
13:49 24.9 °C 12.1 °C 1015.5 hPa SSW 3.2 km/h 6.4 km/h 45% 0 mm
13:54 25.4 °C 11.9 °C 1015.5 hPa SSW 3.2 km/h 8 km/h 43% 0 mm
13:59 25.4 °C 12.2 °C 1015.1 hPa SW 3.2 km/h 8 km/h 44% 0 mm
14:04 25.6 °C 11.3 °C 1015.1 hPa SW 3.2 km/h 9.7 km/h 41% 0 mm
14:09 25.4 °C 9.7 °C 1015.1 hPa SW 3.2 km/h 4.8 km/h 37% 0 mm
14:14 25.8 °C 12.6 °C 1015.1 hPa West 1.6 km/h 3.2 km/h 44% 0 mm
14:19 25.4 °C 11.2 °C 1014.8 hPa Calm   6.4 km/h 41% 0 mm
14:24 25.7 °C 13.2 °C 1014.8 hPa NW 8 km/h 11.3 km/h 46% 0 mm
14:29 25.9 °C 13.8 °C 1014.8 hPa West 4.8 km/h 11.3 km/h 47% 0 mm
14:34 25.8 °C 11.9 °C 1014.8 hPa West 4.8 km/h 9.7 km/h 42% 0 mm
14:39 25.9 °C 12 °C 1014.8 hPa West 3.2 km/h 8 km/h 42% 0 mm
14:44 26.1 °C 11.4 °C 1014.8 hPa WSW 3.2 km/h 9.7 km/h 40% 0 mm
14:49 25.8 °C 11.2 °C 1014.4 hPa SW 4.8 km/h 9.7 km/h 40% 0 mm
14:54 25.9 °C 11.6 °C 1014.4 hPa Calm   4.8 km/h 41% 0 mm
14:59 25.7 °C 9.9 °C 1014.4 hPa WSW 1.6 km/h 6.4 km/h 37% 0 mm
15:04 25.8 °C 11.2 °C 1014.4 hPa WSW 4.8 km/h 8 km/h 40% 0 mm
15:09 25.8 °C 10.4 °C 1014.4 hPa SSE 1.6 km/h 8 km/h 38% 0 mm
15:14 26.1 °C 11 °C 1014.1 hPa WSW 4.8 km/h 8 km/h 39% 0 mm
15:19 26.1 °C 11.1 °C 1014.1 hPa West 3.2 km/h 9.7 km/h 39% 0 mm
15:24 26.3 °C 10.8 °C 1014.1 hPa West 1.6 km/h 4.8 km/h 38% 0 mm
15:29 26.6 °C 11.8 °C 1014.1 hPa West 3.2 km/h 9.7 km/h 40% 0 mm
15:34 26.4 °C 11.4 °C 1014.1 hPa WSW 4.8 km/h 9.7 km/h 39% 0 mm
15:39 26.3 °C 10.4 °C 1014.1 hPa WSW 3.2 km/h 9.7 km/h 37% 0 mm
15:44 26.2 °C 9.9 °C 1014.1 hPa West 3.2 km/h 6.4 km/h 36% 0 mm
15:49 26.4 °C 10.6 °C 1014.1 hPa West 1.6 km/h 6.4 km/h 37% 0 mm
15:54 26.7 °C 11.2 °C 1013.8 hPa West 3.2 km/h 8 km/h 38% 0 mm
15:59 26.2 °C 10.3 °C 1013.8 hPa NW 3.2 km/h 9.7 km/h 37% 0 mm
16:04 26.4 °C 9.7 °C 1013.8 hPa WNW 6.4 km/h 8 km/h 35% 0 mm
16:09 26.7 °C 9.9 °C 1013.8 hPa WNW 4.8 km/h 8 km/h 35% 0 mm
16:14 26.4 °C 9.7 °C 1013.8 hPa West 6.4 km/h 8 km/h 35% 0 mm
16:24 26.4 °C 10.2 °C 1013.4 hPa WSW 1.6 km/h 4.8 km/h 36% 0 mm
16:29 26.4 °C 10.2 °C 1013.4 hPa West 3.2 km/h 6.4 km/h 36% 0 mm
16:34 26.2 °C 8.7 °C 1013.4 hPa West 1.6 km/h 4.8 km/h 33% 0 mm
16:39 26.3 °C 10.8 °C 1013.4 hPa WNW 1.6 km/h 8 km/h 38% 0 mm
16:44 26.6 °C 10.7 °C 1013.1 hPa NW 1.6 km/h 8 km/h 37% 0 mm
16:49 26.4 °C 9.7 °C 1013.1 hPa West 1.6 km/h 6.4 km/h 35% 0 mm
16:54 26.5 °C 9.8 °C 1013.1 hPa WSW 3.2 km/h 6.4 km/h 35% 0 mm
16:59 26.3 °C 10.5 °C 1013.1 hPa WSW 1.6 km/h 8 km/h 37% 0 mm
17:04 26.3 °C 10 °C 1013.1 hPa WSW 1.6 km/h 8 km/h 36% 0 mm
17:09 26.3 °C 10 °C 1013.1 hPa WSW 3.2 km/h 8 km/h 36% 0 mm
17:14 26.1 °C 9.8 °C 1013.1 hPa SW 3.2 km/h 9.7 km/h 36% 0 mm
17:19 26.1 °C 10.7 °C 1013.1 hPa WSW 3.2 km/h 9.7 km/h 38% 0 mm
17:24 26.1 °C 11.1 °C 1013.1 hPa West 3.2 km/h 8 km/h 39% 0 mm
17:29 26.1 °C 11.4 °C 1012.8 hPa WNW 3.2 km/h 6.4 km/h 40% 0 mm
17:34 26.1 °C 10.7 °C 1012.8 hPa WNW 1.6 km/h 8 km/h 38% 0 mm
17:39 25.9 °C 9.3 °C 1012.8 hPa Calm   3.2 km/h 35% 0 mm
17:44 25.9 °C 10.1 °C 1012.8 hPa Calm   3.2 km/h 37% 0 mm
17:49 25.7 °C 10.3 °C 1012.8 hPa Calm     38% 0 mm
17:54 25.6 °C 10.9 °C 1012.8 hPa Calm     40% 0 mm
17:59 25.4 °C 10.1 °C 1012.8 hPa Calm     38% 0 mm
18:04 25.3 °C 10.4 °C 1012.8 hPa Calm     39% 0 mm
18:09 25.2 °C 10.6 °C 1012.8 hPa Calm     40% 0 mm
18:14 25 °C 10.8 °C 1012.8 hPa Calm   6.4 km/h 41% 0 mm
18:19 24.8 °C 10.3 °C 1012.8 hPa WNW 1.6 km/h 6.4 km/h 40% 0 mm
18:24 24.8 °C 10.6 °C 1012.4 hPa WNW 1.6 km/h 4.8 km/h 41% 0 mm
18:29 24.7 °C 11.2 °C 1012.4 hPa Calm   4.8 km/h 43% 0 mm
18:34 24.4 °C 11.7 °C 1012.8 hPa Calm     45% 0 mm
18:39 24.2 °C 11.2 °C 1012.4 hPa Calm     44% 0 mm
18:44 24.2 °C 11.2 °C 1012.4 hPa Calm     44% 0 mm
18:49 23.9 °C 11.2 °C 1012.4 hPa Calm     45% 0 mm
18:54 23.6 °C 12.8 °C 1012.4 hPa Calm   4.8 km/h 51% 0 mm
18:59 23.1 °C 14.9 °C 1012.4 hPa NE 6.4 km/h 6.4 km/h 60% 0 mm
19:04 22.7 °C 15.6 °C 1012.4 hPa NNE 1.6 km/h 9.7 km/h 64% 0 mm
19:09 22.3 °C 15.8 °C 1012.4 hPa Calm   6.4 km/h 67% 0 mm
19:14 21.9 °C 15.8 °C 1012.4 hPa NNE 1.6 km/h 3.2 km/h 68% 0 mm
19:19 21.8 °C 15.8 °C 1012.8 hPa NE 1.6 km/h 6.4 km/h 69% 0 mm
19:24 21.6 °C 15.6 °C 1012.4 hPa NE 3.2 km/h 11.3 km/h 69% 0 mm
19:29 21.4 °C 15.4 °C 1012.8 hPa NE 3.2 km/h 11.3 km/h 69% 0 mm
19:34 21.1 °C 15.4 °C 1012.8 hPa NE 1.6 km/h 6.4 km/h 70% 0 mm
19:39 20.8 °C 15.3 °C 1012.4 hPa NE 1.6 km/h 11.3 km/h 71% 0 mm
19:44 20.6 °C 15.1 °C 1012.8 hPa NE 1.6 km/h 11.3 km/h 71% 0 mm
19:49 20.4 °C 15.2 °C 1012.8 hPa Calm   4.8 km/h 72% 0 mm
19:54 20.2 °C 15 °C 1012.8 hPa NE 1.6 km/h 4.8 km/h 72% 0 mm
20:04 20 °C 15 °C 1012.8 hPa NE 3.2 km/h 4.8 km/h 73% 0 mm
20:09 19.9 °C 14.9 °C 1012.8 hPa ENE 3.2 km/h 8 km/h 73% 0 mm
20:14 19.8 °C 14.8 °C 1013.1 hPa Calm   6.4 km/h 73% 0 mm
20:19 19.6 °C 14.6 °C 1013.1 hPa ENE 1.6 km/h 6.4 km/h 73% 0 mm
20:24 19.6 °C 14.6 °C 1013.1 hPa ENE 3.2 km/h 11.3 km/h 73% 0 mm
20:29 19.6 °C 14.6 °C 1012.8 hPa NE 4.8 km/h 11.3 km/h 73% 0 mm
20:34 19.5 °C 14.6 °C 1012.8 hPa ENE 4.8 km/h 11.3 km/h 73% 0 mm
20:39 19.5 °C 14.6 °C 1013.1 hPa ENE 4.8 km/h 11.3 km/h 73% 0 mm
20:44 19.3 °C 14.6 °C 1013.1 hPa NE 6.4 km/h 9.7 km/h 74% 0 mm
20:49 19.2 °C 14.5 °C 1013.1 hPa ENE 6.4 km/h 11.3 km/h 74% 0 mm
20:54 19.1 °C 14.3 °C 1013.1 hPa Calm   6.4 km/h 74% 0 mm
20:59 18.9 °C 14.2 °C 1013.1 hPa ENE 1.6 km/h 6.4 km/h 74% 0 mm
21:04 18.8 °C 14.1 °C 1012.8 hPa Calm   6.4 km/h 74% 0 mm
21:09 18.6 °C 14.1 °C 1012.8 hPa Calm   6.4 km/h 75% 0 mm
21:14 18.4 °C 13.9 °C 1012.8 hPa Calm     75% 0 mm
21:19 18.3 °C 13.8 °C 1012.8 hPa Calm     75% 0 mm
21:24 18.3 °C 13.8 °C 1012.8 hPa Calm     75% 0 mm
21:29 18.1 °C 13.6 °C 1012.8 hPa Calm   4.8 km/h 75% 0 mm
21:34 18.1 °C 13.6 °C 1012.8 hPa Calm   3.2 km/h 75% 0 mm
21:39 18 °C 13.5 °C 1012.8 hPa Calm     75% 0 mm
21:44 17.9 °C 13.4 °C 1012.8 hPa Calm   3.2 km/h 75% 0 mm
21:49 17.8 °C 13.3 °C 1012.8 hPa Calm   1.6 km/h 75% 0 mm
21:54 17.7 °C 13.2 °C 1012.8 hPa ENE 4.8 km/h 4.8 km/h 75% 0 mm
21:59 17.6 °C 13.3 °C 1012.8 hPa Calm   4.8 km/h 76% 0 mm
22:04 17.5 °C 13 °C 1012.4 hPa Calm   4.8 km/h 75% 0 mm
22:09 17.5 °C 13.2 °C 1012.4 hPa Calm   4.8 km/h 76% 0 mm
22:14 17.3 °C 13.1 °C 1012.4 hPa Calm   4.8 km/h 76% 0 mm
22:19 17.3 °C 13.2 °C 1012.4 hPa Calm   6.4 km/h 77% 0 mm
22:24 17.2 °C 13.2 °C 1012.4 hPa Calm   3.2 km/h 77% 0 mm
22:29 17.1 °C 13.1 °C 1012.4 hPa Calm     77% 0 mm
22:34 17 °C 13.1 °C 1012.4 hPa Calm     78% 0 mm
22:39 16.8 °C 13 °C 1012.4 hPa Calm     78% 0 mm
22:44 16.8 °C 13.1 °C 1012.1 hPa Calm     79% 0 mm
22:49 16.8 °C 13.3 °C 1012.4 hPa Calm     80% 0 mm
22:54 16.8 °C 13.3 °C 1012.1 hPa East 1.6 km/h 4.8 km/h 80% 0 mm
22:59 16.8 °C 13.3 °C 1012.1 hPa East 3.2 km/h 3.2 km/h 80% 0 mm
23:04 16.7 °C 13.4 °C 1012.1 hPa Calm   8 km/h 81% 0 mm
23:09 16.7 °C 13.4 °C 1012.1 hPa Calm   8 km/h 81% 0 mm
23:19 16.6 °C 13.4 °C 1012.1 hPa ESE 1.6 km/h 3.2 km/h 82% 0 mm
23:24 16.5 °C 13.4 °C 1012.1 hPa Calm   3.2 km/h 82% 0 mm
23:29 16.4 °C 13.6 °C 1011.7 hPa ENE 1.6 km/h 8 km/h 83% 0 mm
23:34 16.4 °C 13.6 °C 1011.7 hPa ENE 1.6 km/h 8 km/h 83% 0 mm
23:39 16.3 °C 13.3 °C 1011.7 hPa Calm   3.2 km/h 82% 0 mm
23:44 16.2 °C 13.3 °C 1012.1 hPa Calm   3.2 km/h 83% 0 mm
23:49 16.1 °C 13.2 °C 1012.1 hPa Calm     83% 0 mm
23:54 16.1 °C 13.4 °C 1012.1 hPa Calm   4.8 km/h 84% 0 mm
23:59 16 °C 13.3 °C 1012.1 hPa Calm     84% 0 mm
Buffalo, New York, USA
Compliments of Weather Underground - 2.5 mb